Time;durP1;ratioP1;P1;durP2;ratioP2;P2;SDS_P1;SDS_P2;PMS_P1;PMS_P2;Temp;Humidity;BMP_temperature;BMP_pressure;BME280_temperature;BME280_humidity;BME280_pressure;Samples;Min_cycle;Max_cycle;Signal;HPM_P1;HPM_P2
2023/12/07 00:01:20;;;;;;;15.73;11.27;;;0.30;99.90;;;;;;5004594;28;20054;-33
2023/12/07 00:03:45;;;;;;;16.05;11.57;;;0.30;99.90;;;;;;5008038;28;20051;-33
2023/12/07 00:06:11;;;;;;;16.50;12.18;;;0.30;99.90;;;;;;5002774;28;20046;-42
2023/12/07 00:08:36;;;;;;;15.70;12.68;;;0.30;99.90;;;;;;5001145;28;20548;-33
2023/12/07 00:11:02;;;;;;;14.82;11.45;;;0.30;99.90;;;;;;5004653;28;20129;-33
2023/12/07 00:13:28;;;;;;;14.25;11.10;;;0.20;99.90;;;;;;5006326;28;20518;-33
2023/12/07 00:15:53;;;;;;;14.43;12.90;;;0.20;99.90;;;;;;5004909;28;20050;-32
2023/12/07 00:18:19;;;;;;;15.75;12.98;;;0.10;99.90;;;;;;5008420;28;20392;-32
2023/12/07 00:20:45;;;;;;;15.10;13.02;;;0.10;99.90;;;;;;5004797;28;20089;-33
2023/12/07 00:23:11;;;;;;;16.75;13.15;;;0.10;99.90;;;;;;5006602;28;20128;-35
2023/12/07 00:25:36;;;;;;;17.55;14.30;;;0.10;99.90;;;;;;5005309;28;20136;-33
2023/12/07 00:28:03;;;;;;;17.17;13.30;;;0.00;99.90;;;;;;5004430;28;20111;-33
2023/12/07 00:30:29;;;;;;;16.33;14.48;;;0.00;99.90;;;;;;5006085;28;20047;-33
2023/12/07 00:32:55;;;;;;;16.00;12.77;;;0.00;99.90;;;;;;5006751;28;20048;-33
2023/12/07 00:35:22;;;;;;;18.60;13.93;;;0.00;99.90;;;;;;5001566;28;20514;-33
2023/12/07 00:37:48;;;;;;;15.50;13.15;;;0.10;99.90;;;;;;5003019;28;20515;-33
2023/12/07 00:40:14;;;;;;;21.10;17.15;;;0.00;99.90;;;;;;5003902;28;20056;-33
2023/12/07 00:42:40;;;;;;;18.17;15.93;;;0.10;99.90;;;;;;5004086;28;20411;-53
2023/12/07 00:45:06;;;;;;;18.42;14.57;;;0.00;99.90;;;;;;5004196;28;20073;-33
2023/12/07 00:47:32;;;;;;;18.77;16.00;;;0.00;99.90;;;;;;5004949;28;20500;-33
2023/12/07 00:49:57;;;;;;;19.15;17.25;;;0.00;99.90;;;;;;5004907;28;20149;-33
2023/12/07 00:52:23;;;;;;;19.33;15.38;;;0.00;99.90;;;;;;5008350;28;20091;-33
2023/12/07 00:54:48;;;;;;;20.00;17.70;;;0.00;99.90;;;;;;5003820;28;20062;-33
2023/12/07 00:57:15;;;;;;;19.70;16.50;;;0.10;99.90;;;;;;5006700;28;20064;-33
2023/12/07 00:59:41;;;;;;;21.75;17.20;;;0.00;99.90;;;;;;5005291;28;20539;-33
2023/12/07 01:02:07;;;;;;;20.13;17.05;;;0.10;99.90;;;;;;5004464;28;20076;-33
2023/12/07 01:04:33;;;;;;;20.98;17.75;;;0.10;99.90;;;;;;5004895;28;20057;-33
2023/12/07 01:06:59;;;;;;;20.58;18.42;;;0.10;99.90;;;;;;5005265;28;20073;-33
2023/12/07 01:09:26;;;;;;;22.65;18.40;;;0.20;99.90;;;;;;5005326;28;20128;-33
2023/12/07 01:11:52;;;;;;;18.92;15.90;;;0.20;99.90;;;;;;5006733;28;20065;-33
2023/12/07 01:14:18;;;;;;;23.38;18.45;;;0.20;99.90;;;;;;5003006;28;20099;-33
2023/12/07 01:16:45;;;;;;;20.30;18.17;;;0.20;99.90;;;;;;5013315;28;20045;-33
2023/12/07 01:19:14;;;;;;;21.02;18.40;;;0.20;99.90;;;;;;5006815;28;20137;-34
2023/12/07 01:21:40;;;;;;;21.15;18.33;;;0.30;99.90;;;;;;5008773;28;20124;-34
2023/12/07 01:24:07;;;;;;;20.58;17.95;;;0.20;99.90;;;;;;5003625;28;20057;-36
2023/12/07 01:26:32;;;;;;;20.55;17.25;;;0.20;99.90;;;;;;5004176;28;20129;-33
2023/12/07 01:28:58;;;;;;;22.70;19.13;;;0.30;99.90;;;;;;5018096;28;20125;-34
2023/12/07 01:31:24;;;;;;;21.05;18.80;;;0.20;99.90;;;;;;5004909;28;20134;-34
2023/12/07 01:33:49;;;;;;;21.25;17.85;;;0.30;99.90;;;;;;5004830;28;20046;-33
2023/12/07 01:36:15;;;;;;;20.02;17.42;;;0.30;99.90;;;;;;5003897;28;20042;-34
2023/12/07 01:38:41;;;;;;;21.55;19.15;;;0.30;99.90;;;;;;5005554;28;20053;-33
2023/12/07 01:41:06;;;;;;;22.00;19.58;;;0.30;99.90;;;;;;4999419;28;20050;-34
2023/12/07 01:43:32;;;;;;;20.73;18.08;;;0.30;99.90;;;;;;5004157;28;20138;-33
2023/12/07 01:45:59;;;;;;;20.90;18.10;;;0.30;99.90;;;;;;5004992;28;20078;-34
2023/12/07 01:48:29;;;;;;;23.27;17.58;;;0.30;99.90;;;;;;5007080;28;20149;-33
2023/12/07 01:50:56;;;;;;;22.17;19.08;;;0.20;99.90;;;;;;5009576;28;20053;-33
2023/12/07 01:53:24;;;;;;;24.38;19.60;;;0.20;99.90;;;;;;5006522;28;20046;-34
2023/12/07 01:55:51;;;;;;;24.80;18.75;;;0.20;99.90;;;;;;5008772;28;20146;-33
2023/12/07 01:58:18;;;;;;;20.48;17.70;;;0.20;99.90;;;;;;5008383;28;20097;-39
2023/12/07 02:00:44;;;;;;;21.55;19.10;;;0.20;99.90;;;;;;5007283;28;20061;-33
2023/12/07 02:03:11;;;;;;;21.92;19.45;;;0.20;99.90;;;;;;5003394;28;20459;-33
2023/12/07 02:05:37;;;;;;;22.73;19.98;;;0.10;99.90;;;;;;5007984;28;20511;-33
2023/12/07 02:08:03;;;;;;;23.95;20.92;;;0.10;99.90;;;;;;5006421;28;20053;-33
2023/12/07 02:10:29;;;;;;;23.40;20.92;;;0.10;99.90;;;;;;5006938;28;20053;-33
2023/12/07 02:12:54;;;;;;;22.80;20.52;;;0.10;99.90;;;;;;5006527;28;20511;-33
2023/12/07 02:15:21;;;;;;;24.55;22.00;;;0.00;99.90;;;;;;5007907;28;20518;-33
2023/12/07 02:18:22;;;;;;;26.02;23.05;;;0.00;99.90;;;;;;5008423;28;20061;-47
2023/12/07 02:21:04;;;;;;;21.63;19.33;;;0.00;99.90;;;;;;5007091;28;20120;-33
2023/12/07 02:23:32;;;;;;;21.92;19.60;;;0.00;99.90;;;;;;5008099;28;20140;-33
2023/12/07 02:26:03;;;;;;;20.10;17.55;;;0.00;99.90;;;;;;5008684;28;20057;-33
2023/12/07 02:28:29;;;;;;;22.80;20.20;;;-0.10;99.90;;;;;;5007813;28;20518;-33
2023/12/07 02:30:55;;;;;;;24.25;20.55;;;-0.10;99.90;;;;;;5006716;28;20049;-35
2023/12/07 02:33:21;;;;;;;22.08;19.75;;;-0.10;99.90;;;;;;5011328;28;20050;-46
2023/12/07 02:35:47;;;;;;;22.48;20.25;;;-0.10;99.90;;;;;;5007290;28;20053;-33
2023/12/07 02:38:13;;;;;;;26.40;23.70;;;-0.20;99.90;;;;;;5006791;28;20107;-33
2023/12/07 02:40:40;;;;;;;23.08;17.30;;;-0.20;99.90;;;;;;5008824;28;20476;-42
2023/12/07 02:43:07;;;;;;;23.30;17.88;;;-0.20;99.90;;;;;;5007334;28;20080;-34
2023/12/07 02:45:33;;;;;;;22.88;18.77;;;-0.20;99.90;;;;;;5007016;28;20049;-33
2023/12/07 02:47:59;;;;;;;26.20;17.65;;;-0.20;99.90;;;;;;5007141;28;20065;-33
2023/12/07 02:50:25;;;;;;;22.48;17.38;;;-0.20;99.90;;;;;;5009958;28;20046;-37
2023/12/07 02:52:51;;;;;;;23.50;17.30;;;-0.20;99.90;;;;;;5004562;28;20058;-33
2023/12/07 02:55:17;;;;;;;26.58;20.23;;;-0.10;99.90;;;;;;5008391;28;20053;-33
2023/12/07 02:57:42;;;;;;;21.70;17.35;;;-0.10;99.90;;;;;;5005904;28;20058;-33
2023/12/07 03:00:09;;;;;;;22.38;16.38;;;-0.10;99.90;;;;;;5008928;28;20535;-42
2023/12/07 03:02:37;;;;;;;23.38;16.95;;;-0.10;99.90;;;;;;5007604;28;20483;-33
2023/12/07 03:05:03;;;;;;;22.27;18.45;;;-0.10;99.90;;;;;;5008963;28;20050;-33
2023/12/07 03:07:29;;;;;;;22.23;17.27;;;-0.20;99.90;;;;;;5007952;28;20058;-33
2023/12/07 03:09:55;;;;;;;23.55;17.95;;;-0.20;99.90;;;;;;5010394;28;20105;-33
2023/12/07 03:12:20;;;;;;;21.77;18.88;;;-0.20;99.90;;;;;;5008682;28;20555;-33
2023/12/07 03:14:46;;;;;;;22.48;18.80;;;-0.20;99.90;;;;;;5006555;28;20046;-33
2023/12/07 03:17:12;;;;;;;23.65;16.95;;;-0.20;99.90;;;;;;5009010;28;20077;-34
2023/12/07 03:19:39;;;;;;;22.73;17.90;;;-0.20;99.90;;;;;;5022160;28;20050;-34
2023/12/07 03:22:06;;;;;;;21.63;19.23;;;-0.30;99.90;;;;;;5009476;28;20053;-33
2023/12/07 03:24:34;;;;;;;26.25;23.25;;;-0.30;99.90;;;;;;5005648;28;20046;-33
2023/12/07 03:27:00;;;;;;;21.77;16.10;;;-0.30;99.90;;;;;;5007251;28;20057;-34
2023/12/07 03:29:26;;;;;;;26.17;19.10;;;-0.30;99.90;;;;;;5015681;28;20405;-34
2023/12/07 03:31:51;;;;;;;28.92;25.83;;;-0.30;99.90;;;;;;4998819;28;20057;-33
2023/12/07 03:34:17;;;;;;;21.60;17.75;;;-0.30;99.90;;;;;;5007930;28;20137;-33
2023/12/07 03:36:46;;;;;;;23.60;17.67;;;-0.20;99.90;;;;;;5006536;28;20054;-33
2023/12/07 03:39:13;;;;;;;21.40;16.63;;;-0.20;99.90;;;;;;5006689;28;20049;-35
2023/12/07 03:41:38;;;;;;;22.80;18.30;;;-0.20;99.90;;;;;;5008202;28;20462;-35
2023/12/07 03:44:04;;;;;;;21.85;17.05;;;-0.20;99.90;;;;;;5009237;28;20037;-34
2023/12/07 03:46:30;;;;;;;20.40;17.25;;;-0.20;99.90;;;;;;5001972;28;20047;-34
2023/12/07 03:48:55;;;;;;;22.20;19.23;;;-0.20;99.90;;;;;;5007018;28;20050;-33
2023/12/07 03:51:21;;;;;;;25.42;18.58;;;-0.20;99.90;;;;;;5007175;28;20398;-33
2023/12/07 03:53:47;;;;;;;24.60;17.75;;;-0.20;99.90;;;;;;5005810;28;20038;-34
2023/12/07 03:56:23;;;;;;;30.00;26.13;;;-0.10;99.90;;;;;;5004776;28;20129;-33
2023/12/07 03:58:49;;;;;;;25.05;20.27;;;-0.10;99.90;;;;;;5008001;28;20514;-33
2023/12/07 04:01:14;;;;;;;27.98;19.13;;;-0.10;99.90;;;;;;5008558;28;20053;-34
2023/12/07 04:03:40;;;;;;;26.70;18.60;;;0.00;99.90;;;;;;5002135;28;20057;-34
2023/12/07 04:06:06;;;;;;;26.95;18.60;;;0.10;99.90;;;;;;5005783;28;20085;-33
2023/12/07 04:08:31;;;;;;;29.70;18.40;;;0.10;99.90;;;;;;5007973;28;20045;-34
2023/12/07 04:10:57;;;;;;;29.23;19.77;;;0.10;99.90;;;;;;5006222;28;20419;-33
2023/12/07 04:13:22;;;;;;;25.80;17.15;;;0.10;99.90;;;;;;5007316;28;20045;-33
2023/12/07 04:15:48;;;;;;;24.45;17.33;;;0.10;99.90;;;;;;5004502;28;20538;-33
2023/12/07 04:18:14;;;;;;;22.80;16.67;;;0.20;99.90;;;;;;5003155;28;20543;-34
2023/12/07 04:20:39;;;;;;;26.65;17.23;;;0.20;99.90;;;;;;5004598;28;20061;-34
2023/12/07 04:23:05;;;;;;;24.05;16.92;;;0.20;99.90;;;;;;5003230;28;20064;-34
2023/12/07 04:25:31;;;;;;;24.70;16.70;;;0.20;99.90;;;;;;5009222;28;20415;-41
2023/12/07 04:27:56;;;;;;;24.73;19.45;;;0.20;99.90;;;;;;5006521;28;20500;-33
2023/12/07 04:30:22;;;;;;;26.30;20.20;;;0.20;99.90;;;;;;5006551;28;20054;-34
2023/12/07 04:32:48;;;;;;;29.10;22.00;;;0.20;99.90;;;;;;5006933;28;20547;-33
2023/12/07 04:35:14;;;;;;;26.45;20.00;;;0.20;99.90;;;;;;5006971;28;20184;-33
2023/12/07 04:37:39;;;;;;;25.38;20.98;;;0.30;99.90;;;;;;5004660;28;20463;-34
2023/12/07 04:40:06;;;;;;;24.17;17.75;;;0.30;99.90;;;;;;5006587;28;20041;-37
2023/12/07 04:42:32;;;;;;;26.63;21.00;;;0.30;99.90;;;;;;5009250;28;20160;-35
2023/12/07 04:44:57;;;;;;;25.27;17.20;;;0.30;99.90;;;;;;5021038;28;20642;-34
2023/12/07 04:47:23;;;;;;;26.15;20.52;;;0.30;99.90;;;;;;5006973;28;20398;-39
2023/12/07 04:49:49;;;;;;;27.25;20.33;;;0.30;99.90;;;;;;5004749;28;20053;-33
2023/12/07 04:52:15;;;;;;;28.90;21.05;;;0.40;99.90;;;;;;5005037;28;20085;-33
2023/12/07 04:54:41;;;;;;;27.95;20.70;;;0.40;99.90;;;;;;5004157;28;20045;-34
2023/12/07 04:57:07;;;;;;;29.17;21.25;;;0.40;99.90;;;;;;5009387;28;20061;-33
2023/12/07 04:59:33;;;;;;;26.05;20.52;;;0.40;99.90;;;;;;5007503;28;20049;-35
2023/12/07 05:01:58;;;;;;;29.88;22.05;;;0.40;99.90;;;;;;5003932;28;20150;-34
2023/12/07 05:04:24;;;;;;;28.48;17.45;;;0.40;99.90;;;;;;5006286;28;20076;-34
2023/12/07 05:06:50;;;;;;;23.80;16.73;;;0.30;99.90;;;;;;5001361;28;20397;-33
2023/12/07 05:09:16;;;;;;;29.33;20.40;;;0.30;99.90;;;;;;5004206;28;20053;-34
2023/12/07 05:11:42;;;;;;;26.27;17.70;;;0.30;99.90;;;;;;5008276;28;20042;-33
2023/12/07 05:14:07;;;;;;;28.35;20.73;;;0.30;99.90;;;;;;5006305;28;20131;-34
2023/12/07 05:16:33;;;;;;;25.65;17.13;;;0.20;99.90;;;;;;5008613;28;20061;-33
2023/12/07 05:18:59;;;;;;;28.80;18.05;;;0.20;99.90;;;;;;5001819;28;21139;-44
2023/12/07 05:21:25;;;;;;;29.65;22.20;;;0.20;99.90;;;;;;5004874;28;20137;-33
2023/12/07 05:23:50;;;;;;;28.67;18.45;;;0.10;99.90;;;;;;5007223;28;20069;-34
2023/12/07 05:26:16;;;;;;;29.13;20.70;;;0.10;99.90;;;;;;5008861;28;20053;-33
2023/12/07 05:28:41;;;;;;;25.83;18.88;;;0.10;99.90;;;;;;5012564;28;20053;-34
2023/12/07 05:31:07;;;;;;;29.48;17.60;;;0.00;99.90;;;;;;5009829;28;20073;-33
2023/12/07 05:33:33;;;;;;;25.92;17.70;;;0.00;99.90;;;;;;5010499;28;20541;-34
2023/12/07 05:36:00;;;;;;;26.05;18.05;;;-0.10;99.90;;;;;;5014697;28;20142;-34
2023/12/07 05:38:26;;;;;;;28.17;18.20;;;-0.10;99.90;;;;;;5011098;28;20050;-34
2023/12/07 05:40:51;;;;;;;30.98;22.60;;;-0.10;99.90;;;;;;5011678;28;20496;-32
2023/12/07 05:43:17;;;;;;;24.17;17.38;;;-0.10;99.90;;;;;;5009486;28;20062;-32
2023/12/07 05:45:43;;;;;;;24.73;18.60;;;-0.10;99.90;;;;;;5008063;28;20046;-37
2023/12/07 05:48:08;;;;;;;29.33;20.52;;;-0.20;99.90;;;;;;5007447;28;20443;-32
2023/12/07 05:50:34;;;;;;;24.77;19.63;;;-0.20;99.90;;;;;;5008907;28;20388;-32
2023/12/07 05:52:59;;;;;;;24.48;18.60;;;-0.20;99.90;;;;;;5009049;28;20054;-32
2023/12/07 05:55:25;;;;;;;27.55;21.67;;;-0.30;99.90;;;;;;5011372;28;20138;-33
2023/12/07 05:57:51;;;;;;;24.73;20.15;;;-0.30;99.90;;;;;;5008849;28;20500;-33
2023/12/07 06:00:18;;;;;;;24.73;19.10;;;-0.30;99.90;;;;;;5010606;28;20052;-33
2023/12/07 06:02:44;;;;;;;30.08;24.92;;;-0.30;99.90;;;;;;5010109;28;20065;-33
2023/12/07 06:05:10;;;;;;;29.40;22.75;;;-0.30;99.90;;;;;;5009926;28;20069;-33
2023/12/07 06:07:36;;;;;;;29.27;23.20;;;-0.40;99.90;;;;;;5006523;28;20053;-34
2023/12/07 06:10:02;;;;;;;30.35;24.77;;;-0.40;99.90;;;;;;5003133;28;20049;-33
2023/12/07 06:12:27;;;;;;;27.02;21.40;;;-0.40;99.90;;;;;;5009584;28;20049;-32
2023/12/07 06:14:53;;;;;;;26.20;18.65;;;-0.40;99.90;;;;;;5008596;28;20054;-33
2023/12/07 06:17:20;;;;;;;29.17;21.48;;;-0.40;99.90;;;;;;5007876;28;20144;-33
2023/12/07 06:19:46;;;;;;;25.35;19.48;;;-0.40;99.90;;;;;;5006900;28;20050;-33
2023/12/07 06:22:13;;;;;;;27.40;21.65;;;-0.40;99.90;;;;;;5009342;28;20053;-33
2023/12/07 06:24:39;;;;;;;24.55;19.75;;;-0.40;99.90;;;;;;5010212;28;20049;-33
2023/12/07 06:27:05;;;;;;;24.58;18.65;;;-0.40;99.90;;;;;;5007087;28;20046;-33
2023/12/07 06:29:30;;;;;;;27.50;24.45;;;-0.40;99.90;;;;;;5009102;28;20050;-33
2023/12/07 06:31:57;;;;;;;24.20;18.10;;;-0.40;99.90;;;;;;5004903;28;20052;-44
2023/12/07 06:34:23;;;;;;;26.73;19.70;;;-0.50;99.90;;;;;;5009314;28;20508;-34
2023/12/07 06:36:49;;;;;;;22.10;19.25;;;-0.50;99.90;;;;;;5007976;28;20045;-34
2023/12/07 06:39:14;;;;;;;24.80;20.52;;;-0.50;99.90;;;;;;5009955;28;20112;-32
2023/12/07 06:41:40;;;;;;;26.27;22.98;;;-0.60;99.90;;;;;;5010659;28;20041;-33
2023/12/07 06:44:06;;;;;;;24.58;21.92;;;-0.60;99.90;;;;;;5007701;28;20516;-33
2023/12/07 06:46:32;;;;;;;28.80;25.88;;;-0.60;99.90;;;;;;5006293;28;20050;-33
2023/12/07 06:48:58;;;;;;;32.72;29.55;;;-0.60;99.90;;;;;;5008888;28;20062;-37
2023/12/07 06:51:23;;;;;;;27.98;23.52;;;-0.60;99.90;;;;;;5006807;28;20345;-32
2023/12/07 06:53:49;;;;;;;33.05;29.73;;;-0.70;99.90;;;;;;5008448;28;20060;-33
2023/12/07 06:56:15;;;;;;;32.72;29.60;;;-0.60;99.90;;;;;;5013959;28;20081;-33
2023/12/07 06:58:41;;;;;;;26.10;23.30;;;-0.70;99.90;;;;;;5011274;28;20096;-33
2023/12/07 07:01:06;;;;;;;31.20;28.00;;;-0.70;99.90;;;;;;5006861;28;20052;-33
2023/12/07 07:03:32;;;;;;;31.02;26.15;;;-0.70;99.90;;;;;;5011567;28;20057;-33
2023/12/07 07:05:59;;;;;;;28.23;25.35;;;-0.60;99.90;;;;;;5008389;28;20499;-33
2023/12/07 07:08:25;;;;;;;30.77;27.48;;;-0.60;99.90;;;;;;5006072;28;20111;-33
2023/12/07 07:10:51;;;;;;;29.77;26.70;;;-0.70;99.90;;;;;;5005547;28;20054;-32
2023/12/07 07:13:19;;;;;;;28.15;24.83;;;-0.60;99.90;;;;;;5004215;28;20054;-33
2023/12/07 07:15:45;;;;;;;28.67;24.85;;;-0.70;99.90;;;;;;5006764;28;20069;-34
2023/12/07 07:18:10;;;;;;;30.45;24.98;;;-0.60;99.90;;;;;;5010541;28;20069;-39
2023/12/07 07:20:36;;;;;;;26.38;20.42;;;-0.60;99.90;;;;;;5014299;28;20562;-32
2023/12/07 07:23:02;;;;;;;32.15;25.90;;;-0.60;99.90;;;;;;5007935;28;20100;-33
2023/12/07 07:25:27;;;;;;;29.23;25.98;;;-0.70;99.90;;;;;;5012930;28;20517;-32
2023/12/07 07:27:54;;;;;;;31.58;28.23;;;-0.60;99.90;;;;;;5005537;28;20148;-32
2023/12/07 07:30:20;;;;;;;27.83;24.48;;;-0.70;99.90;;;;;;5009918;28;20050;-33
2023/12/07 07:32:46;;;;;;;30.58;27.02;;;-0.70;99.90;;;;;;5005551;28;20049;-33
2023/12/07 07:35:12;;;;;;;28.25;24.40;;;-0.70;99.90;;;;;;5007982;28;20124;-39
2023/12/07 07:37:38;;;;;;;30.23;26.75;;;-0.70;99.90;;;;;;5009857;28;20054;-33
2023/12/07 07:40:06;;;;;;;27.95;25.13;;;-0.70;99.90;;;;;;5004363;28;20049;-33
2023/12/07 07:42:33;;;;;;;29.33;24.08;;;-0.70;99.90;;;;;;5006612;28;20054;-33
2023/12/07 07:44:59;;;;;;;33.88;30.23;;;-0.70;99.90;;;;;;5010034;28;20053;-34
2023/12/07 07:47:24;;;;;;;26.77;21.88;;;-0.70;99.90;;;;;;5009333;28;20393;-34
2023/12/07 07:49:50;;;;;;;30.88;21.60;;;-0.60;99.90;;;;;;5006188;28;20504;-33
2023/12/07 07:52:16;;;;;;;30.27;25.38;;;-0.60;99.90;;;;;;5014201;28;20057;-41
2023/12/07 07:54:42;;;;;;;33.45;26.58;;;-0.60;99.90;;;;;;5008787;28;20104;-40
2023/12/07 07:57:08;;;;;;;31.40;26.70;;;-0.60;99.90;;;;;;5007776;28;20053;-33
2023/12/07 07:59:34;;;;;;;34.95;27.58;;;-0.60;99.90;;;;;;5006388;28;20133;-34
2023/12/07 08:01:59;;;;;;;30.85;26.58;;;-0.60;99.90;;;;;;5002633;28;20140;-33
2023/12/07 08:04:25;;;;;;;34.30;28.30;;;-0.60;99.90;;;;;;5005993;28;20053;-34
2023/12/07 08:06:51;;;;;;;29.27;22.88;;;-0.60;99.90;;;;;;5024984;28;20045;-33
2023/12/07 08:09:16;;;;;;;33.03;25.27;;;-0.60;99.90;;;;;;5005487;28;20050;-33
2023/12/07 08:11:42;;;;;;;27.92;24.02;;;-0.60;99.90;;;;;;5002307;28;20137;-33
2023/12/07 08:14:08;;;;;;;32.00;26.58;;;-0.60;99.90;;;;;;4989810;28;20081;-35
2023/12/07 08:16:34;;;;;;;33.30;26.52;;;-0.60;99.90;;;;;;5011169;28;20514;-34
2023/12/07 08:19:00;;;;;;;33.50;24.50;;;-0.60;99.90;;;;;;5010207;28;20054;-33
2023/12/07 08:21:25;;;;;;;36.80;28.00;;;-0.60;99.90;;;;;;5005581;28;20057;-39
2023/12/07 08:23:51;;;;;;;32.05;24.75;;;-0.60;99.90;;;;;;5011470;28;20061;-33
2023/12/07 08:26:17;;;;;;;30.63;22.75;;;-0.50;99.90;;;;;;5010472;28;20569;-33
2023/12/07 08:28:44;;;;;;;32.38;24.75;;;-0.50;99.90;;;;;;5013699;28;20046;-35
2023/12/07 08:31:12;;;;;;;33.13;23.83;;;-0.50;99.90;;;;;;5010087;28;20045;-34
2023/12/07 08:33:39;;;;;;;35.55;30.88;;;-0.50;99.90;;;;;;5007863;28;20104;-34
2023/12/07 08:36:06;;;;;;;36.45;28.73;;;-0.40;99.90;;;;;;5003757;28;20140;-34
2023/12/07 08:38:32;;;;;;;35.83;28.50;;;-0.40;99.90;;;;;;5008512;28;20556;-34
2023/12/07 08:40:58;;;;;;;49.45;26.73;;;-0.40;99.90;;;;;;5007379;28;20138;-39
2023/12/07 08:43:24;;;;;;;43.45;26.20;;;-0.40;99.90;;;;;;5010727;28;20140;-34
2023/12/07 08:45:51;;;;;;;49.78;26.25;;;-0.30;99.90;;;;;;5007550;28;20088;-33
2023/12/07 08:48:19;;;;;;;66.55;27.27;;;-0.30;99.90;;;;;;5004957;28;20411;-34
2023/12/07 08:50:45;;;;;;;118.65;35.38;;;-0.20;99.90;;;;;;5009645;28;20077;-34
2023/12/07 08:53:10;;;;;;;117.25;26.45;;;-0.20;99.90;;;;;;5012180;28;20519;-33
2023/12/07 08:55:36;;;;;;;119.40;34.95;;;-0.20;99.90;;;;;;5008045;28;20085;-34
2023/12/07 08:58:04;;;;;;;95.00;30.05;;;-0.20;99.90;;;;;;5006870;28;20137;-34
2023/12/07 09:00:32;;;;;;;92.75;27.60;;;-0.20;99.90;;;;;;5006724;28;20061;-39
2023/12/07 09:02:57;;;;;;;134.73;34.28;;;-0.20;99.90;;;;;;5012738;28;20057;-34
2023/12/07 09:05:23;;;;;;;110.60;27.45;;;-0.20;99.90;;;;;;5005538;28;20054;-34
2023/12/07 09:07:49;;;;;;;71.40;23.25;;;-0.20;99.90;;;;;;5011314;28;20057;-34
2023/12/07 09:10:14;;;;;;;96.57;23.52;;;-0.30;99.90;;;;;;5005060;28;20082;-34
2023/12/07 09:12:40;;;;;;;83.50;28.35;;;-0.30;99.90;;;;;;5006078;28;20124;-34
2023/12/07 09:15:07;;;;;;;86.90;26.10;;;-0.20;99.90;;;;;;5013143;28;20072;-34
2023/12/07 09:17:33;;;;;;;60.92;26.33;;;-0.20;99.90;;;;;;5006755;28;20065;-34
2023/12/07 09:19:58;;;;;;;133.77;32.10;;;-0.20;99.90;;;;;;5006199;28;20054;-45
2023/12/07 09:22:25;;;;;;;138.13;29.90;;;-0.20;99.90;;;;;;5006573;28;20049;-34
2023/12/07 09:24:50;;;;;;;106.60;25.20;;;-0.10;99.90;;;;;;5007212;28;20065;-34
2023/12/07 09:27:16;;;;;;;81.05;30.30;;;-0.20;99.90;;;;;;5007471;28;20111;-33
2023/12/07 09:29:42;;;;;;;103.82;30.20;;;-0.10;99.90;;;;;;5006984;28;20046;-34
2023/12/07 09:32:07;;;;;;;75.78;24.70;;;-0.10;99.90;;;;;;5008922;28;20046;-35
2023/12/07 09:34:34;;;;;;;96.78;27.48;;;0.00;99.90;;;;;;5008285;28;20107;-35
2023/12/07 09:37:09;;;;;;;88.10;23.50;;;0.00;99.90;;;;;;5008871;28;20037;-39
2023/12/07 09:39:35;;;;;;;84.07;26.77;;;0.10;99.90;;;;;;5000710;28;20049;-41
2023/12/07 09:42:01;;;;;;;86.55;26.30;;;0.10;99.90;;;;;;5006873;28;20042;-33
2023/12/07 09:44:28;;;;;;;65.45;20.20;;;0.10;99.90;;;;;;5005356;28;20161;-35
2023/12/07 09:46:54;;;;;;;101.28;25.88;;;0.10;99.90;;;;;;5008101;28;20073;-36
2023/12/07 09:49:20;;;;;;;127.60;28.17;;;0.10;99.90;;;;;;5009286;28;20052;-34
2023/12/07 09:51:47;;;;;;;157.73;25.75;;;0.10;99.90;;;;;;5007329;28;20496;-35
2023/12/07 09:54:13;;;;;;;153.52;28.58;;;0.10;99.90;;;;;;5013517;28;20050;-34
2023/12/07 09:56:39;;;;;;;141.73;28.25;;;0.10;99.90;;;;;;5006511;28;20052;-34
2023/12/07 09:59:06;;;;;;;152.38;27.30;;;0.10;99.90;;;;;;5002296;28;20053;-34
2023/12/07 10:01:35;;;;;;;130.05;27.25;;;0.20;99.90;;;;;;5006473;28;20084;-35
2023/12/07 10:04:20;;;;;;;115.28;24.40;;;0.20;99.90;;;;;;5004142;28;20049;-34
2023/12/07 10:06:47;;;;;;;84.45;26.67;;;0.20;99.90;;;;;;5003389;28;20590;-34
2023/12/07 10:09:14;;;;;;;79.05;23.23;;;0.20;99.90;;;;;;5007555;28;20060;-35
2023/12/07 10:11:40;;;;;;;44.45;20.13;;;0.10;99.90;;;;;;5015280;28;20057;-36
2023/12/07 10:14:10;;;;;;;78.38;22.35;;;0.10;99.90;;;;;;5011557;28;20112;-34
2023/12/07 10:16:36;;;;;;;120.57;28.50;;;0.10;99.90;;;;;;5009913;28;21436;-34
2023/12/07 10:19:21;;;;;;;116.13;24.90;;;0.10;99.90;;;;;;5011597;28;20092;-34
2023/12/07 10:21:53;;;;;;;131.10;28.95;;;0.10;99.90;;;;;;5010833;28;20492;-35
2023/12/07 10:24:25;;;;;;;103.30;32.30;;;0.10;99.90;;;;;;5011464;28;20053;-34
2023/12/07 10:26:52;;;;;;;79.07;26.00;;;0.10;99.90;;;;;;5009057;28;20455;-34
2023/12/07 10:29:23;;;;;;;79.88;26.05;;;0.20;99.90;;;;;;5006792;28;20046;-34
2023/12/07 10:31:49;;;;;;;98.53;29.70;;;0.10;99.90;;;;;;5012721;28;20112;-35
2023/12/07 10:34:20;;;;;;;94.90;24.50;;;0.10;99.90;;;;;;5009779;28;20504;-34
2023/12/07 10:36:47;;;;;;;85.90;28.00;;;0.20;99.90;;;;;;5007928;28;20069;-35
2023/12/07 10:39:13;;;;;;;58.70;23.08;;;0.20;99.90;;;;;;5015173;28;20072;-34
2023/12/07 10:41:42;;;;;;;87.10;25.27;;;0.20;99.90;;;;;;5015709;28;20496;-44
2023/12/07 10:44:11;;;;;;;75.72;25.13;;;0.20;99.90;;;;;;5009450;28;20080;-35
2023/12/07 10:46:39;;;;;;;148.07;28.42;;;0.30;99.90;;;;;;5014303;28;20475;-35
2023/12/07 10:49:10;;;;;;;112.55;25.30;;;0.20;99.90;;;;;;5010214;28;20496;-40
2023/12/07 10:52:00;;;;;;;112.00;28.90;;;0.20;99.90;;;;;;5000281;28;20060;-34
2023/12/07 10:54:33;;;;;;;104.68;35.20;;;0.30;99.90;;;;;;5008526;28;20054;-34
2023/12/07 10:57:03;;;;;;;69.63;29.73;;;0.20;99.90;;;;;;5010327;28;20054;-34
2023/12/07 10:59:31;;;;;;;89.43;30.75;;;0.30;99.90;;;;;;5011524;28;20466;-34
2023/12/07 11:01:57;;;;;;;74.05;21.45;;;0.30;99.90;;;;;;5003984;28;20519;-35
2023/12/07 11:04:24;;;;;;;80.75;20.65;;;0.40;99.90;;;;;;5007332;28;20049;-35
2023/12/07 11:06:52;;;;;;;72.65;21.23;;;0.40;99.90;;;;;;5004984;28;20451;-34
2023/12/07 11:09:24;;;;;;;90.78;26.20;;;0.40;99.90;;;;;;5005115;28;20120;-35
2023/12/07 11:12:07;;;;;;;47.78;20.45;;;0.40;99.90;;;;;;5008359;28;20895;-34
2023/12/07 11:14:33;;;;;;;68.38;23.85;;;0.50;99.90;;;;;;5007124;28;20049;-34
2023/12/07 11:16:59;;;;;;;95.40;28.90;;;0.50;99.90;;;;;;5005229;28;20144;-35
2023/12/07 11:19:35;;;;;;;70.95;28.08;;;0.50;99.90;;;;;;5003813;28;20148;-34
2023/12/07 11:22:06;;;;;;;73.25;24.23;;;0.60;99.90;;;;;;5004005;28;20057;-35
2023/12/07 11:24:32;;;;;;;53.28;21.08;;;0.60;99.90;;;;;;5011180;28;20049;-34
2023/12/07 11:26:58;;;;;;;117.30;33.05;;;0.60;99.90;;;;;;5003307;28;20056;-34
2023/12/07 11:29:25;;;;;;;78.93;27.40;;;0.60;99.90;;;;;;5007687;28;20054;-34
2023/12/07 11:31:52;;;;;;;78.63;24.65;;;0.60;99.90;;;;;;5004979;28;20060;-34
2023/12/07 11:34:38;;;;;;;82.38;28.38;;;0.60;99.90;;;;;;5004145;28;20057;-45
2023/12/07 11:37:04;;;;;;;66.93;22.17;;;0.70;99.90;;;;;;5005313;28;20050;-35
2023/12/07 11:39:36;;;;;;;90.65;27.75;;;0.70;99.90;;;;;;5006283;28;20050;-41
2023/12/07 11:42:17;;;;;;;95.93;31.92;;;0.70;99.90;;;;;;5005261;28;20065;-35
2023/12/07 11:44:48;;;;;;;54.78;20.08;;;0.70;99.90;;;;;;5005844;28;20045;-34
2023/12/07 11:47:20;;;;;;;86.70;27.48;;;0.70;99.90;;;;;;5006918;28;20586;-35
2023/12/07 11:49:46;;;;;;;72.78;23.75;;;0.70;99.90;;;;;;5007021;28;20061;-40
2023/12/07 11:52:17;;;;;;;111.70;30.45;;;0.70;99.90;;;;;;5006329;28;20046;-37
2023/12/07 11:54:49;;;;;;;111.28;27.70;;;0.70;99.90;;;;;;5005923;28;20042;-38
2023/12/07 11:57:16;;;;;;;95.07;24.48;;;0.80;99.90;;;;;;5005955;28;20045;-34
2023/12/07 11:59:47;;;;;;;96.75;30.05;;;0.80;99.90;;;;;;5006192;28;20037;-33
2023/12/07 12:02:13;;;;;;;88.45;30.15;;;0.80;99.90;;;;;;5007090;28;20050;-34
2023/12/07 12:04:42;;;;;;;81.57;26.90;;;0.80;99.90;;;;;;5007458;28;20103;-34
2023/12/07 12:07:08;;;;;;;103.60;26.48;;;0.80;99.90;;;;;;5008235;28;20527;-34
2023/12/07 12:09:34;;;;;;;85.45;28.83;;;0.80;99.90;;;;;;5009567;28;20054;-35
2023/12/07 12:12:00;;;;;;;81.82;25.48;;;0.80;99.90;;;;;;5007712;28;20134;-34
2023/12/07 12:14:27;;;;;;;64.80;24.25;;;0.80;99.90;;;;;;5014308;28;20137;-41
2023/12/07 12:16:55;;;;;;;87.25;24.60;;;0.90;99.90;;;;;;5002589;28;20054;-35
2023/12/07 12:19:23;;;;;;;81.00;22.45;;;0.90;99.90;;;;;;5003067;28;20825;-39
2023/12/07 12:21:49;;;;;;;66.22;24.55;;;0.90;99.90;;;;;;5003283;28;20042;-34
2023/12/07 12:24:14;;;;;;;49.42;22.23;;;0.90;99.90;;;;;;5007318;28;20058;-34
2023/12/07 12:26:42;;;;;;;119.65;27.73;;;0.90;99.90;;;;;;5008502;28;20084;-34
2023/12/07 12:29:08;;;;;;;70.20;23.85;;;0.90;99.90;;;;;;5006159;28;20062;-34